Time;durP1;ratioP1;P1;durP2;ratioP2;P2;SDS_P1;SDS_P2;PMS_P1;PMS_P2;Temp;Humidity;BMP_temperature;BMP_pressure;BME280_temperature;BME280_humidity;BME280_pressure;Samples;Min_cycle;Max_cycle;Signal;HPM_P1;HPM_P2
2023/12/12 00:00:01;;;;;;;17.50;3.23;;;;;;;;;;5042413;28;20033;-81
2023/12/12 00:02:27;;;;;;;15.23;3.30;;;;;;;;;;5026869;28;20041;-81
2023/12/12 00:04:53;;;;;;;16.80;3.03;;;;;;;;;;5033097;28;20030;-80
2023/12/12 00:07:19;;;;;;;21.63;3.90;;;;;;;;;;5024751;28;20120;-82
2023/12/12 00:09:45;;;;;;;31.83;3.93;;;;;;;;;;5032001;28;20044;-81
2023/12/12 00:12:11;;;;;;;17.53;3.33;;;;;;;;;;5032708;28;20030;-81
2023/12/12 00:14:38;;;;;;;16.87;3.77;;;;;;;;;;5032008;28;20026;-81
2023/12/12 00:17:04;;;;;;;17.03;4.17;;;;;;;;;;5031793;28;20112;-80
2023/12/12 00:19:29;;;;;;;24.30;3.43;;;;;;;;;;5028664;28;20048;-79
2023/12/12 00:21:55;;;;;;;32.03;4.57;;;;;;;;;;5023367;28;20034;-79
2023/12/12 00:24:24;;;;;;;21.57;3.63;;;;;;;;;;5017710;28;20048;-79
2023/12/12 00:26:50;;;;;;;24.20;4.00;;;;;;;;;;5017293;28;20029;-80
2023/12/12 00:29:16;;;;;;;21.53;4.07;;;;;;;;;;5021713;28;20488;-80
2023/12/12 00:31:42;;;;;;;17.60;4.20;;;;;;;;;;5013899;28;20057;-80
2023/12/12 00:34:08;;;;;;;25.10;4.00;;;;;;;;;;5018343;28;20056;-80
2023/12/12 00:36:34;;;;;;;34.10;4.20;;;;;;;;;;5015415;28;20053;-79
2023/12/12 00:39:00;;;;;;;24.17;4.00;;;;;;;;;;5017420;28;20064;-80
2023/12/12 00:41:33;;;;;;;22.53;3.93;;;;;;;;;;5015545;28;20231;-80
2023/12/12 00:43:59;;;;;;;;;;;;;;;;;;5035801;28;20022;-80
2023/12/12 00:46:25;;;;;;;18.30;2.80;;;;;;;;;;5015593;28;19913;-79
2023/12/12 00:48:51;;;;;;;22.50;4.37;;;;;;;;;;5019397;28;20037;-80
2023/12/12 00:51:17;;;;;;;23.27;3.80;;;;;;;;;;5032675;28;20358;-80
2023/12/12 00:53:43;;;;;;;26.80;3.53;;;;;;;;;;5021296;28;20037;-80
2023/12/12 00:56:09;;;;;;;30.70;4.63;;;;;;;;;;5018545;28;20021;-79
2023/12/12 00:58:35;;;;;;;16.57;3.27;;;;;;;;;;5017478;28;20029;-79
2023/12/12 01:01:01;;;;;;;26.63;4.87;;;;;;;;;;5016092;28;21682;-80
2023/12/12 01:03:28;;;;;;;20.23;3.33;;;;;;;;;;5015589;28;20041;-79
2023/12/12 01:05:54;;;;;;;22.33;3.63;;;;;;;;;;5017709;28;20860;-79
2023/12/12 01:08:20;;;;;;;17.63;3.17;;;;;;;;;;5018359;28;20091;-80
2023/12/12 01:10:46;;;;;;;14.80;3.33;;;;;;;;;;5017588;28;20036;-79
2023/12/12 01:13:12;;;;;;;14.97;3.23;;;;;;;;;;5015674;28;20490;-79
2023/12/12 01:15:38;;;;;;;30.17;4.07;;;;;;;;;;5017992;28;20029;-80
2023/12/12 01:18:04;;;;;;;15.10;3.57;;;;;;;;;;5033519;28;20025;-80
2023/12/12 01:20:30;;;;;;;24.90;3.57;;;;;;;;;;5034905;28;20030;-80
2023/12/12 01:22:56;;;;;;;14.27;3.27;;;;;;;;;;5018064;28;20172;-80
2023/12/12 01:25:22;;;;;;;20.73;3.47;;;;;;;;;;5035082;28;20025;-80
2023/12/12 01:27:48;;;;;;;18.37;4.27;;;;;;;;;;5017882;28;20040;-80
2023/12/12 01:30:14;;;;;;;13.60;3.83;;;;;;;;;;5033326;28;20033;-79
2023/12/12 01:32:40;;;;;;;20.67;3.80;;;;;;;;;;5017512;28;20974;-79
2023/12/12 01:35:07;;;;;;;15.83;3.30;;;;;;;;;;5017063;28;20021;-79
2023/12/12 01:37:33;;;;;;;16.83;3.63;;;;;;;;;;5017987;28;20112;-79
2023/12/12 01:39:59;;;;;;;13.00;2.83;;;;;;;;;;5018466;28;20022;-80
2023/12/12 01:42:25;;;;;;;15.47;2.83;;;;;;;;;;5013842;28;20080;-80
2023/12/12 01:44:50;;;;;;;16.87;3.17;;;;;;;;;;5017141;28;20095;-80
2023/12/12 01:47:17;;;;;;;22.87;3.17;;;;;;;;;;5022190;28;20397;-79
2023/12/12 01:49:43;;;;;;;27.87;4.20;;;;;;;;;;5015481;28;20059;-79
2023/12/12 01:52:09;;;;;;;18.80;2.67;;;;;;;;;;5016389;28;20057;-80
2023/12/12 01:54:36;;;;;;;17.53;3.20;;;;;;;;;;5017104;28;20103;-80
2023/12/12 01:57:02;;;;;;;21.47;3.93;;;;;;;;;;5035223;28;20018;-79
2023/12/12 01:59:29;;;;;;;26.73;4.97;;;;;;;;;;5035217;28;20385;-80
2023/12/12 02:01:55;;;;;;;17.53;2.43;;;;;;;;;;5015726;28;20037;-80
2023/12/12 02:04:21;;;;;;;16.13;3.53;;;;;;;;;;5017844;28;20061;-79
2023/12/12 02:06:49;;;;;;;16.07;3.03;;;;;;;;;;5016916;28;20033;-79
2023/12/12 02:09:15;;;;;;;18.63;3.67;;;;;;;;;;5018914;28;20037;-80
2023/12/12 02:11:41;;;;;;;16.83;4.20;;;;;;;;;;5036173;28;20033;-80
2023/12/12 02:14:09;;;;;;;20.70;3.60;;;;;;;;;;5019843;28;20120;-80
2023/12/12 02:16:36;;;;;;;24.67;5.43;;;;;;;;;;5012740;28;20025;-79
2023/12/12 02:19:01;;;;;;;12.50;2.80;;;;;;;;;;5017259;28;20033;-80
2023/12/12 02:21:27;;;;;;;23.97;3.23;;;;;;;;;;5015579;28;20091;-80
2023/12/12 02:23:53;;;;;;;18.00;3.63;;;;;;;;;;5015547;28;20121;-80
2023/12/12 02:26:19;;;;;;;17.67;3.27;;;;;;;;;;5014758;28;21734;-80
2023/12/12 02:28:46;;;;;;;17.97;3.70;;;;;;;;;;5015631;28;20064;-80
2023/12/12 02:31:12;;;;;;;22.73;3.60;;;;;;;;;;5016950;28;20037;-78
2023/12/12 02:33:38;;;;;;;21.27;3.53;;;;;;;;;;5016567;28;20065;-80
2023/12/12 02:36:04;;;;;;;27.50;4.47;;;;;;;;;;5016295;28;20057;-80
2023/12/12 02:38:30;;;;;;;24.83;4.03;;;;;;;;;;5015593;28;20033;-77
2023/12/12 02:40:56;;;;;;;16.70;3.43;;;;;;;;;;5014614;28;20742;-79
2023/12/12 02:43:22;;;;;;;20.83;3.50;;;;;;;;;;5018517;28;20420;-80
2023/12/12 02:45:49;;;;;;;24.50;4.23;;;;;;;;;;5016428;28;20033;-80
2023/12/12 02:48:15;;;;;;;21.47;4.27;;;;;;;;;;5034754;28;20089;-80
2023/12/12 02:50:41;;;;;;;22.77;3.80;;;;;;;;;;5013593;28;20117;-80
2023/12/12 02:53:07;;;;;;;31.37;4.93;;;;;;;;;;5010254;28;20553;-80
2023/12/12 02:55:33;;;;;;;27.83;4.70;;;;;;;;;;5015656;28;20022;-79
2023/12/12 02:57:59;;;;;;;19.63;3.60;;;;;;;;;;5017598;28;20030;-79
2023/12/12 03:00:25;;;;;;;26.10;4.00;;;;;;;;;;5011847;28;20106;-79
2023/12/12 03:02:51;;;;;;;27.67;4.20;;;;;;;;;;5015797;28;20473;-80
2023/12/12 03:05:17;;;;;;;20.93;3.83;;;;;;;;;;5017987;28;20034;-80
2023/12/12 03:07:43;;;;;;;22.07;4.20;;;;;;;;;;5015550;28;20125;-79
2023/12/12 03:10:09;;;;;;;24.57;4.47;;;;;;;;;;5009189;28;20108;-79
2023/12/12 03:12:35;;;;;;;22.63;3.53;;;;;;;;;;5029882;28;20030;-79
2023/12/12 03:15:01;;;;;;;22.33;3.33;;;;;;;;;;5016146;28;20029;-79
2023/12/12 03:17:27;;;;;;;21.93;4.10;;;;;;;;;;5015799;28;20053;-80
2023/12/12 03:19:53;;;;;;;17.50;3.53;;;;;;;;;;5016614;28;20064;-79
2023/12/12 03:22:19;;;;;;;24.20;4.10;;;;;;;;;;5013469;28;20090;-79
2023/12/12 03:24:45;;;;;;;24.50;3.97;;;;;;;;;;5011415;28;20082;-79
2023/12/12 03:27:11;;;;;;;16.63;3.97;;;;;;;;;;5031432;28;20041;-79
2023/12/12 03:29:38;;;;;;;21.57;3.53;;;;;;;;;;5015506;28;20040;-79
2023/12/12 03:32:04;;;;;;;17.53;3.63;;;;;;;;;;5011644;28;20039;-80
2023/12/12 03:34:30;;;;;;;18.13;4.37;;;;;;;;;;5032244;28;20033;-80
2023/12/12 03:36:56;;;;;;;20.00;2.90;;;;;;;;;;5031353;28;20026;-80
2023/12/12 03:39:22;;;;;;;16.63;3.20;;;;;;;;;;5031742;28;20103;-80
2023/12/12 03:41:48;;;;;;;22.90;3.70;;;;;;;;;;5016176;28;20041;-80
2023/12/12 03:44:14;;;;;;;21.17;2.97;;;;;;;;;;5012983;28;20037;-79
2023/12/12 03:46:40;;;;;;;17.77;3.27;;;;;;;;;;5015484;28;20033;-79
2023/12/12 03:49:06;;;;;;;16.63;3.30;;;;;;;;;;5014832;28;20424;-79
2023/12/12 03:51:33;;;;;;;14.40;3.13;;;;;;;;;;5013449;28;20025;-80
2023/12/12 03:53:59;;;;;;;15.73;3.03;;;;;;;;;;5033079;28;20092;-79
2023/12/12 03:56:25;;;;;;;17.97;2.87;;;;;;;;;;5031198;28;20849;-79
2023/12/12 03:58:51;;;;;;;12.57;2.73;;;;;;;;;;5014935;28;20045;-79
2023/12/12 04:01:17;;;;;;;15.90;3.30;;;;;;;;;;5031878;28;20034;-80
2023/12/12 04:03:43;;;;;;;17.30;3.53;;;;;;;;;;5013883;28;20045;-79
2023/12/12 04:06:09;;;;;;;25.57;4.07;;;;;;;;;;5032299;28;20171;-80
2023/12/12 04:08:36;;;;;;;21.53;3.43;;;;;;;;;;5035749;28;20485;-79
2023/12/12 04:11:02;;;;;;;19.80;3.00;;;;;;;;;;5029301;28;20124;-79
2023/12/12 04:13:35;;;;;;;19.60;3.03;;;;;;;;;;5031957;28;20036;-79
2023/12/12 04:16:01;;;;;;;13.50;3.10;;;;;;;;;;5032733;28;20063;-80
2023/12/12 04:18:27;;;;;;;28.57;3.23;;;;;;;;;;5014801;28;20608;-79
2023/12/12 04:20:53;;;;;;;25.23;3.50;;;;;;;;;;5015878;28;20115;-79
2023/12/12 04:23:19;;;;;;;16.87;3.43;;;;;;;;;;5014358;28;20037;-79
2023/12/12 04:25:45;;;;;;;21.80;3.50;;;;;;;;;;5011789;28;20441;-79
2023/12/12 04:28:11;;;;;;;17.47;3.27;;;;;;;;;;5011899;28;20038;-80
2023/12/12 04:30:37;;;;;;;23.27;3.70;;;;;;;;;;5012215;28;20040;-80
2023/12/12 04:33:04;;;;;;;12.83;3.30;;;;;;;;;;5014147;28;20026;-79
2023/12/12 04:35:30;;;;;;;19.47;3.27;;;;;;;;;;5015284;28;20025;-80
2023/12/12 04:37:56;;;;;;;19.53;3.67;;;;;;;;;;5035072;28;20083;-80
2023/12/12 04:40:27;;;;;;;22.63;3.47;;;;;;;;;;5006699;28;20030;-79
2023/12/12 04:42:53;;;;;;;23.67;3.43;;;;;;;;;;5020606;28;20033;-80
2023/12/12 04:45:19;;;;;;;17.23;3.73;;;;;;;;;;5015302;28;20026;-80
2023/12/12 04:47:45;;;;;;;19.20;3.10;;;;;;;;;;5027284;28;20056;-81
2023/12/12 04:50:12;;;;;;;20.60;3.03;;;;;;;;;;5021787;28;20029;-80
2023/12/12 04:52:38;;;;;;;12.37;3.23;;;;;;;;;;5023635;28;20365;-80
2023/12/12 04:55:04;;;;;;;15.80;2.60;;;;;;;;;;5023589;28;20022;-80
2023/12/12 04:57:30;;;;;;;20.53;3.07;;;;;;;;;;5015215;28;20030;-80
2023/12/12 04:59:56;;;;;;;16.93;3.57;;;;;;;;;;5025764;28;20347;-79
2023/12/12 05:02:22;;;;;;;16.53;3.23;;;;;;;;;;5022394;28;20021;-80
2023/12/12 05:04:48;;;;;;;18.57;3.93;;;;;;;;;;5010141;28;20017;-80
2023/12/12 05:07:16;;;;;;;15.40;3.53;;;;;;;;;;5021773;28;20056;-80
2023/12/12 05:09:42;;;;;;;28.37;4.23;;;;;;;;;;5023451;28;20026;-80
2023/12/12 05:12:09;;;;;;;17.40;3.27;;;;;;;;;;5021815;28;20017;-80
2023/12/12 05:14:35;;;;;;;15.40;3.37;;;;;;;;;;5023026;28;20025;-79
2023/12/12 05:17:01;;;;;;;21.63;3.97;;;;;;;;;;5022238;28;20207;-80
2023/12/12 05:19:27;;;;;;;25.97;3.43;;;;;;;;;;5006550;28;20026;-80
2023/12/12 05:21:53;;;;;;;18.47;3.87;;;;;;;;;;5018030;28;20087;-80
2023/12/12 05:24:19;;;;;;;18.60;4.27;;;;;;;;;;5010116;28;20053;-80
2023/12/12 05:26:45;;;;;;;17.20;3.60;;;;;;;;;;5036110;28;20346;-80
2023/12/12 05:29:11;;;;;;;22.73;4.30;;;;;;;;;;5009751;28;20099;-80
2023/12/12 05:31:37;;;;;;;21.00;3.70;;;;;;;;;;5015730;28;20021;-80
2023/12/12 05:34:04;;;;;;;18.67;4.83;;;;;;;;;;5014582;28;20144;-80
2023/12/12 05:36:31;;;;;;;23.43;4.27;;;;;;;;;;5023916;28;20021;-80
2023/12/12 05:38:57;;;;;;;22.13;3.70;;;;;;;;;;5020923;28;20025;-79
2023/12/12 05:41:23;;;;;;;19.40;5.00;;;;;;;;;;5011589;28;20026;-80
2023/12/12 05:43:49;;;;;;;27.23;4.63;;;;;;;;;;5028557;28;20524;-80
2023/12/12 05:46:15;;;;;;;31.03;5.50;;;;;;;;;;5020828;28;20035;-79
2023/12/12 05:48:41;;;;;;;20.97;4.50;;;;;;;;;;5018127;28;20492;-80
2023/12/12 05:51:07;;;;;;;20.67;4.80;;;;;;;;;;5033601;28;20033;-79
2023/12/12 05:53:33;;;;;;;29.73;4.57;;;;;;;;;;5013992;28;20057;-80
2023/12/12 05:55:59;;;;;;;21.20;3.97;;;;;;;;;;5020440;28;20034;-80
2023/12/12 05:58:25;;;;;;;22.77;4.43;;;;;;;;;;5020628;28;20040;-79
2023/12/12 06:00:54;;;;;;;23.63;5.03;;;;;;;;;;5036694;28;20152;-80
2023/12/12 06:03:20;;;;;;;26.73;5.47;;;;;;;;;;5020407;28;20481;-80
2023/12/12 06:05:48;;;;;;;22.57;6.00;;;;;;;;;;5016866;28;20435;-80
2023/12/12 06:08:14;;;;;;;19.80;4.67;;;;;;;;;;5021639;28;20030;-80
2023/12/12 06:10:40;;;;;;;20.07;4.87;;;;;;;;;;5017533;28;20100;-80
2023/12/12 06:13:06;;;;;;;29.57;5.53;;;;;;;;;;5007129;28;20488;-80
2023/12/12 06:15:32;;;;;;;22.50;4.70;;;;;;;;;;5023191;28;20049;-79
2023/12/12 06:17:58;;;;;;;25.07;5.17;;;;;;;;;;5018354;28;20022;-78
2023/12/12 06:20:25;;;;;;;25.50;4.57;;;;;;;;;;5011507;28;20060;-79
2023/12/12 06:22:51;;;;;;;30.10;5.87;;;;;;;;;;5018062;28;20084;-79
2023/12/12 06:25:17;;;;;;;23.27;5.03;;;;;;;;;;5012125;28;20029;-80
2023/12/12 06:27:43;;;;;;;21.50;5.03;;;;;;;;;;5017349;28;20036;-79
2023/12/12 06:30:09;;;;;;;20.93;5.50;;;;;;;;;;5016641;28;20022;-80
2023/12/12 06:32:36;;;;;;;25.57;5.87;;;;;;;;;;5033622;28;20017;-79
2023/12/12 06:35:04;;;;;;;33.30;5.33;;;;;;;;;;5009257;28;20021;-80
2023/12/12 06:37:30;;;;;;;24.07;4.93;;;;;;;;;;5016462;28;20026;-80
2023/12/12 06:39:57;;;;;;;27.80;4.97;;;;;;;;;;5033472;28;20574;-79
2023/12/12 06:42:26;;;;;;;24.30;4.53;;;;;;;;;;5015089;28;20095;-80
2023/12/12 06:44:52;;;;;;;24.20;5.27;;;;;;;;;;5011228;28;20060;-80
2023/12/12 06:47:20;;;;;;;27.20;5.23;;;;;;;;;;5015848;28;20846;-80
2023/12/12 06:49:46;;;;;;;29.23;5.20;;;;;;;;;;5015999;28;20049;-79
2023/12/12 06:52:12;;;;;;;22.37;4.77;;;;;;;;;;5013301;28;20064;-79
2023/12/12 06:54:38;;;;;;;22.47;4.83;;;;;;;;;;5017049;28;20029;-80
2023/12/12 06:57:05;;;;;;;25.77;5.97;;;;;;;;;;5013623;28;20033;-79
2023/12/12 06:59:31;;;;;;;18.07;3.80;;;;;;;;;;5014638;28;20059;-79
2023/12/12 07:01:56;;;;;;;21.60;4.43;;;;;;;;;;5015586;28;20514;-79
2023/12/12 07:04:23;;;;;;;22.20;5.13;;;;;;;;;;5016375;28;20033;-80
2023/12/12 07:06:49;;;;;;;22.07;5.00;;;;;;;;;;5016603;28;20025;-80
2023/12/12 07:09:15;;;;;;;24.80;5.40;;;;;;;;;;5031727;28;20132;-79
2023/12/12 07:11:41;;;;;;;23.43;5.07;;;;;;;;;;5017074;28;20030;-80
2023/12/12 07:14:08;;;;;;;13.37;3.77;;;;;;;;;;5015304;28;20028;-79
2023/12/12 07:16:34;;;;;;;21.20;6.13;;;;;;;;;;5015428;28;20029;-80
2023/12/12 07:19:00;;;;;;;21.40;4.33;;;;;;;;;;5012214;28;20041;-80
2023/12/12 07:21:26;;;;;;;24.70;6.23;;;;;;;;;;5017062;28;20025;-80
2023/12/12 07:23:53;;;;;;;22.43;4.80;;;;;;;;;;5015854;28;20076;-80
2023/12/12 07:26:22;;;;;;;27.20;5.27;;;;;;;;;;5018466;28;20046;-80
2023/12/12 07:28:48;;;;;;;21.80;3.73;;;;;;;;;;5013015;28;20128;-80
2023/12/12 07:31:14;;;;;;;37.03;5.47;;;;;;;;;;5016325;28;20061;-79
2023/12/12 07:33:40;;;;;;;29.23;5.87;;;;;;;;;;5013403;28;20041;-80
2023/12/12 07:36:06;;;;;;;21.27;4.97;;;;;;;;;;5015612;28;20033;-80
2023/12/12 07:38:32;;;;;;;28.43;5.57;;;;;;;;;;5015853;28;20029;-79
2023/12/12 07:41:00;;;;;;;27.13;5.13;;;;;;;;;;5014234;28;20040;-80
2023/12/12 07:43:26;;;;;;;26.10;4.63;;;;;;;;;;5012516;28;20450;-80
2023/12/12 07:45:52;;;;;;;20.20;4.20;;;;;;;;;;5016430;28;20091;-80
2023/12/12 07:48:18;;;;;;;22.50;4.77;;;;;;;;;;5013077;28;20037;-80
2023/12/12 07:50:45;;;;;;;16.83;4.37;;;;;;;;;;5015898;28;20068;-80
2023/12/12 07:53:11;;;;;;;23.33;4.90;;;;;;;;;;5015488;28;20029;-79
2023/12/12 07:55:37;;;;;;;27.97;4.80;;;;;;;;;;5014904;28;20553;-80
2023/12/12 07:58:03;;;;;;;23.60;4.93;;;;;;;;;;5015812;28;20165;-80
2023/12/12 08:00:29;;;;;;;23.00;4.20;;;;;;;;;;5015042;28;20362;-80
2023/12/12 08:02:55;;;;;;;30.20;5.83;;;;;;;;;;5015495;28;20040;-80
2023/12/12 08:05:21;;;;;;;28.70;4.10;;;;;;;;;;5028565;28;20233;-80
2023/12/12 08:07:48;;;;;;;24.97;4.47;;;;;;;;;;5017633;28;20032;-80
2023/12/12 08:10:14;;;;;;;19.60;4.40;;;;;;;;;;5016770;28;20037;-80
2023/12/12 08:12:40;;;;;;;21.00;4.77;;;;;;;;;;5020503;28;20858;-80
2023/12/12 08:15:07;;;;;;;23.53;4.63;;;;;;;;;;5019009;28;20025;-80
2023/12/12 08:17:33;;;;;;;23.03;5.50;;;;;;;;;;5019913;28;20087;-79
2023/12/12 08:19:59;;;;;;;19.70;4.23;;;;;;;;;;5019974;28;20385;-80
2023/12/12 08:22:25;;;;;;;25.60;4.77;;;;;;;;;;5019895;28;20033;-79
2023/12/12 08:24:53;;;;;;;21.87;4.17;;;;;;;;;;5019448;28;20429;-80
2023/12/12 08:27:19;;;;;;;16.70;3.73;;;;;;;;;;5018107;28;20145;-80
2023/12/12 08:29:45;;;;;;;15.83;5.23;;;;;;;;;;5019402;28;20116;-80
2023/12/12 08:32:11;;;;;;;24.90;5.40;;;;;;;;;;5019396;28;20453;-79
2023/12/12 08:34:37;;;;;;;21.77;5.00;;;;;;;;;;5019582;28;20763;-80
2023/12/12 08:37:03;;;;;;;21.37;5.90;;;;;;;;;;5019706;28;20041;-79
2023/12/12 08:39:31;;;;;;;25.43;6.77;;;;;;;;;;5021460;28;20759;-80
2023/12/12 08:41:57;;;;;;;25.37;5.80;;;;;;;;;;5017810;28;20025;-79
2023/12/12 08:44:24;;;;;;;22.77;4.97;;;;;;;;;;5034429;28;20101;-79
2023/12/12 08:46:50;;;;;;;22.23;5.10;;;;;;;;;;5036617;28;20033;-79
2023/12/12 08:49:19;;;;;;;24.53;6.07;;;;;;;;;;5015853;28;20044;-78
2023/12/12 08:51:45;;;;;;;20.73;5.53;;;;;;;;;;5020188;28;20116;-79
2023/12/12 08:54:11;;;;;;;22.63;6.47;;;;;;;;;;5019955;28;20033;-79
2023/12/12 08:56:38;;;;;;;23.27;6.03;;;;;;;;;;5034215;28;20057;-80
2023/12/12 08:59:04;;;;;;;23.33;5.87;;;;;;;;;;5036003;28;20418;-79
2023/12/12 09:01:30;;;;;;;20.57;6.43;;;;;;;;;;5037366;28;20053;-79
2023/12/12 09:03:56;;;;;;;24.03;6.30;;;;;;;;;;5021498;28;20033;-79
2023/12/12 09:06:22;;;;;;;21.80;4.97;;;;;;;;;;5018104;28;20069;-79
2023/12/12 09:08:48;;;;;;;24.37;5.97;;;;;;;;;;5018862;28;20041;-80
2023/12/12 09:11:14;;;;;;;19.80;5.30;;;;;;;;;;5017563;28;20079;-80
2023/12/12 09:13:44;;;;;;;31.50;6.97;;;;;;;;;;5018688;28;20029;-79
2023/12/12 09:16:10;;;;;;;23.03;5.60;;;;;;;;;;5020480;28;20098;-80
2023/12/12 09:18:36;;;;;;;23.27;6.63;;;;;;;;;;5016048;28;20029;-80
2023/12/12 09:21:02;;;;;;;31.90;6.77;;;;;;;;;;5019181;28;20678;-80
2023/12/12 09:23:28;;;;;;;30.77;5.90;;;;;;;;;;5017905;28;20115;-80
2023/12/12 09:25:55;;;;;;;25.07;5.30;;;;;;;;;;5018586;28;20033;-80
2023/12/12 09:28:21;;;;;;;19.13;5.37;;;;;;;;;;5035761;28;20033;-80
2023/12/12 09:30:47;;;;;;;19.30;5.23;;;;;;;;;;5035346;28;20025;-80
2023/12/12 09:33:13;;;;;;;23.10;5.50;;;;;;;;;;5020542;28;20029;-80
2023/12/12 09:35:44;;;;;;;24.73;6.00;;;;;;;;;;5021009;28;20618;-82
2023/12/12 09:38:10;;;;;;;28.13;5.40;;;;;;;;;;5027980;28;20040;-80
2023/12/12 09:40:37;;;;;;;28.53;4.40;;;;;;;;;;5023081;28;20041;-79
2023/12/12 09:43:06;;;;;;;23.17;5.10;;;;;;;;;;5023400;28;20033;-79
2023/12/12 09:45:32;;;;;;;20.67;4.83;;;;;;;;;;5024341;28;20069;-79
2023/12/12 09:47:58;;;;;;;21.30;5.33;;;;;;;;;;5023208;28;20124;-79
2023/12/12 09:50:26;;;;;;;27.97;7.60;;;;;;;;;;5023891;28;20043;-80
2023/12/12 09:52:53;;;;;;;20.87;5.73;;;;;;;;;;5037255;28;20025;-79
2023/12/12 09:55:22;;;;;;;23.80;5.50;;;;;;;;;;5045296;28;20021;-79
2023/12/12 09:57:48;;;;;;;21.63;4.63;;;;;;;;;;5042463;28;20022;-81
2023/12/12 10:00:14;;;;;;;22.70;5.70;;;;;;;;;;5044581;28;20033;-78
2023/12/12 10:02:40;;;;;;;26.13;6.70;;;;;;;;;;5027112;28;20033;-80
2023/12/12 10:05:09;;;;;;;19.67;4.80;;;;;;;;;;5026509;28;20029;-80
2023/12/12 10:07:38;;;;;;;20.50;6.27;;;;;;;;;;5046135;28;20018;-81
2023/12/12 10:10:07;;;;;;;26.70;6.13;;;;;;;;;;5047461;28;20048;-79
2023/12/12 10:12:33;;;;;;;26.27;5.77;;;;;;;;;;5029012;28;20107;-79
2023/12/12 10:14:59;;;;;;;24.43;5.27;;;;;;;;;;5041097;28;20056;-80
2023/12/12 10:17:26;;;;;;;19.90;4.97;;;;;;;;;;5022997;28;20048;-80
2023/12/12 10:20:00;;;;;;;21.80;4.70;;;;;;;;;;5025981;28;20053;-79
2023/12/12 10:22:32;;;;;;;29.73;6.00;;;;;;;;;;5038913;28;20033;-78
2023/12/12 10:25:09;;;;;;;21.42;5.30;;;;;;;;;;5036974;28;20030;-79
2023/12/12 10:27:36;;;;;;;24.20;5.07;;;;;;;;;;5025427;28;20036;-82
2023/12/12 10:30:04;;;;;;;21.70;5.10;;;;;;;;;;5023340;28;20044;-80
2023/12/12 10:32:30;;;;;;;16.67;4.63;;;;;;;;;;5038753;28;20168;-81
2023/12/12 10:34:56;;;;;;;24.80;4.73;;;;;;;;;;5030659;28;20022;-80
2023/12/12 10:37:22;;;;;;;19.50;4.33;;;;;;;;;;5039924;28;20029;-80
2023/12/12 10:39:49;;;;;;;17.00;4.07;;;;;;;;;;5020135;28;20481;-80
2023/12/12 10:42:15;;;;;;;16.70;5.20;;;;;;;;;;5039329;28;20044;-80
2023/12/12 10:44:46;;;;;;;18.73;4.87;;;;;;;;;;5018845;28;20191;-80
2023/12/12 10:47:14;;;;;;;22.17;5.47;;;;;;;;;;5023338;28;20044;-80
2023/12/12 10:49:43;;;;;;;18.93;4.67;;;;;;;;;;5041459;28;20033;-80
2023/12/12 10:52:10;;;;;;;24.83;4.63;;;;;;;;;;5020214;28;20472;-80
2023/12/12 10:54:37;;;;;;;16.87;4.40;;;;;;;;;;5028326;28;20438;-79
2023/12/12 10:57:04;;;;;;;21.60;6.07;;;;;;;;;;5026653;28;20064;-79
2023/12/12 10:59:31;;;;;;;19.33;5.50;;;;;;;;;;5018050;28;20096;-79
2023/12/12 11:01:57;;;;;;;22.70;5.63;;;;;;;;;;5028550;28;20025;-80
2023/12/12 11:04:24;;;;;;;16.93;5.20;;;;;;;;;;5016582;28;20160;-79
2023/12/12 11:06:51;;;;;;;16.40;4.97;;;;;;;;;;5024477;28;20037;-80
2023/12/12 11:09:20;;;;;;;14.70;5.23;;;;;;;;;;5045634;28;20072;-79
2023/12/12 11:11:48;;;;;;;25.47;6.10;;;;;;;;;;5027094;28;20056;-80
2023/12/12 11:14:15;;;;;;;24.87;6.10;;;;;;;;;;5021049;28;20116;-79
2023/12/12 11:16:43;;;;;;;25.37;6.10;;;;;;;;;;5018953;28;20147;-79
2023/12/12 11:19:18;;;;;;;20.30;4.83;;;;;;;;;;5043195;28;20030;-79
2023/12/12 11:21:51;;;;;;;19.47;5.87;;;;;;;;;;5026220;28;20034;-79
2023/12/12 11:24:17;;;;;;;;;;;;;;;;;;5030492;28;20057;-80
2023/12/12 11:26:46;;;;;;;19.03;4.77;;;;;;;;;;5027151;28;19920;-79
2023/12/12 11:29:18;;;;;;;20.43;5.50;;;;;;;;;;5026940;28;20048;-80
2023/12/12 11:32:03;;;;;;;18.10;4.40;;;;;;;;;;5047522;28;20089;-81
2023/12/12 11:34:36;;;;;;;23.90;4.50;;;;;;;;;;5034673;28;20025;-81
2023/12/12 11:37:02;;;;;;;21.17;4.77;;;;;;;;;;5031805;28;20029;-82
2023/12/12 11:39:29;;;;;;;19.00;5.17;;;;;;;;;;5026596;28;20025;-80
2023/12/12 11:41:56;;;;;;;24.50;6.20;;;;;;;;;;5045241;28;20037;-80
2023/12/12 11:44:22;;;;;;;26.10;8.10;;;;;;;;;;5035481;28;20033;-82
2023/12/12 11:46:51;;;;;;;17.30;5.90;;;;;;;;;;5026116;28;20044;-80
2023/12/12 11:49:19;;;;;;;15.03;5.90;;;;;;;;;;5028078;28;20037;-80
2023/12/12 11:51:46;;;;;;;21.20;5.37;;;;;;;;;;5031278;28;20029;-80
2023/12/12 11:54:19;;;;;;;24.87;6.33;;;;;;;;;;5022706;28;20038;-80
2023/12/12 11:56:45;;;;;;;24.77;5.50;;;;;;;;;;5047480;28;20021;-80
2023/12/12 11:59:11;;;;;;;26.10;6.03;;;;;;;;;;5033157;28;20040;-80
2023/12/12 12:01:37;;;;;;;22.77;5.70;;;;;;;;;;5037597;28;20063;-81
2023/12/12 12:04:03;;;;;;;17.60;5.00;;;;;;;;;;5026859;28;20026;-81
2023/12/12 12:06:29;;;;;;;26.10;5.43;;;;;;;;;;5032092;28;20408;-81
2023/12/12 12:08:55;;;;;;;16.57;5.33;;;;;;;;;;5037443;28;20025;-81
2023/12/12 12:11:21;;;;;;;23.77;5.57;;;;;;;;;;5042708;28;20048;-80
2023/12/12 12:13:47;;;;;;;24.60;5.50;;;;;;;;;;5029881;28;20065;-80
2023/12/12 12:16:14;;;;;;;16.03;5.00;;;;;;;;;;5033161;28;20039;-80
2023/12/12 12:18:40;;;;;;;20.83;4.90;;;;;;;;;;5028836;28;20128;-80
2023/12/12 12:21:09;;;;;;;21.03;5.47;;;;;;;;;;5025725;28;20446;-79
2023/12/12 12:23:38;;;;;;;20.27;5.63;;;;;;;;;;5026128;28;20092;-79
2023/12/12 12:26:04;;;;;;;26.27;8.20;;;;;;;;;;5026876;28;20026;-79
2023/12/12 12:28:33;;;;;;;26.07;7.10;;;;;;;;;;5044349;28;20041;-80
2023/12/12 12:30:59;;;;;;;26.77;7.43;;;;;;;;;;5022519;28;20021;-79
2023/12/12 12:33:32;;;;;;;27.20;7.73;;;;;;;;;;5039233;28;20124;-79
2023/12/12 12:35:58;;;;;;;;;;;;;;;;;;5023084;28;20079;-80
2023/12/12 12:38:25;;;;;;;29.43;6.00;;;;;;;;;;5023987;28;19964;-79
2023/12/12 12:40:51;;;;;;;29.43;7.13;;;;;;;;;;5025315;28;20065;-79
2023/12/12 12:43:18;;;;;;;26.70;6.60;;;;;;;;;;5039377;28;20072;-80
2023/12/12 12:45:47;;;;;;;26.30;6.77;;;;;;;;;;5023119;28;20033;-79
2023/12/12 12:48:14;;;;;;;23.77;7.57;;;;;;;;;;5023276;28;20183;-80
2023/12/12 12:50:41;;;;;;;26.33;8.50;;;;;;;;;;5040896;28;20545;-81
2023/12/12 12:53:07;;;;;;;26.13;7.47;;;;;;;;;;5043650;28;20044;-79
2023/12/12 12:55:33;;;;;;;24.60;7.07;;;;;;;;;;5025296;28;20487;-79
2023/12/12 12:58:02;;;;;;;24.97;6.00;;;;;;;;;;5021411;28;20022;-78
2023/12/12 13:00:28;;;;;;;25.27;7.67;;;;;;;;;;5026118;28;20029;-80
2023/12/12 13:02:57;;;;;;;27.20;7.63;;;;;;;;;;5028152;28;20033;-81
2023/12/12 13:05:26;;;;;;;19.87;7.23;;;;;;;;;;5025791;28;20030;-79
2023/12/12 13:07:52;;;;;;;29.73;7.33;;;;;;;;;;5025690;28;20048;-80
2023/12/12 13:10:21;;;;;;;32.87;6.43;;;;;;;;;;5045120;28;20033;-80
2023/12/12 13:12:47;;;;;;;28.20;6.50;;;;;;;;;;5028459;28;20093;-79
2023/12/12 13:15:13;;;;;;;23.23;5.80;;;;;;;;;;5026904;28;20038;-80
2023/12/12 13:17:39;;;;;;;22.13;5.50;;;;;;;;;;5029581;28;20093;-80
2023/12/12 13:20:09;;;;;;;20.67;6.43;;;;;;;;;;5027230;28;20175;-80
2023/12/12 13:22:38;;;;;;;22.10;6.03;;;;;;;;;;5038991;28;20470;-79
2023/12/12 13:25:07;;;;;;;29.57;5.70;;;;;;;;;;5019589;28;21681;-79
2023/12/12 13:27:33;;;;;;;19.73;6.20;;;;;;;;;;5022822;28;20053;-80
2023/12/12 13:29:58;;;;;;;23.47;5.40;;;;;;;;;;5022971;28;20363;-79
2023/12/12 13:32:24;;;;;;;22.20;8.07;;;;;;;;;;5026721;28;20037;-80
2023/12/12 13:34:52;;;;;;;27.97;6.40;;;;;;;;;;5024489;28;20029;-79
2023/12/12 13:37:18;;;;;;;29.87;6.47;;;;;;;;;;5026343;28;20068;-79
2023/12/12 13:39:44;;;;;;;21.30;5.80;;;;;;;;;;5023256;28;20033;-79
2023/12/12 13:42:10;;;;;;;28.27;6.80;;;;;;;;;;5021925;28;20093;-79
2023/12/12 13:44:36;;;;;;;22.70;6.37;;;;;;;;;;5024208;28;20083;-80
2023/12/12 13:47:05;;;;;;;23.90;6.43;;;;;;;;;;5022003;28;20030;-80
2023/12/12 13:49:31;;;;;;;26.67;6.27;;;;;;;;;;5021244;28;20036;-79
2023/12/12 13:51:58;;;;;;;29.33;5.93;;;;;;;;;;5022655;28;20033;-79
2023/12/12 13:54:24;;;;;;;21.00;4.93;;;;;;;;;;5023565;28;20034;-79
2023/12/12 13:56:50;;;;;;;20.67;5.83;;;;;;;;;;5021444;28;20033;-79
2023/12/12 13:59:16;;;;;;;21.00;5.67;;;;;;;;;;5022375;28;20065;-80
2023/12/12 14:01:42;;;;;;;18.63;5.93;;;;;;;;;;5024725;28;20040;-79
2023/12/12 14:04:08;;;;;;;24.00;5.90;;;;;;;;;;5021627;28;20481;-79
2023/12/12 14:06:34;;;;;;;14.53;5.10;;;;;;;;;;5024700;28;20026;-79
2023/12/12 14:09:00;;;;;;;16.03;6.07;;;;;;;;;;5020784;28;20033;-80
2023/12/12 14:11:27;;;;;;;21.97;6.50;;;;;;;;;;5019889;28;20021;-78
2023/12/12 14:13:53;;;;;;;21.77;5.50;;;;;;;;;;5021990;28;20022;-79
2023/12/12 14:16:19;;;;;;;24.67;5.23;;;;;;;;;;5022036;28;20021;-79
2023/12/12 14:18:45;;;;;;;16.73;5.13;;;;;;;;;;5020678;28;20029;-79
2023/12/12 14:21:11;;;;;;;25.63;6.40;;;;;;;;;;5020648;28;20029;-78
2023/12/12 14:23:42;;;;;;;18.83;6.63;;;;;;;;;;5020265;28;20426;-79
2023/12/12 14:26:11;;;;;;;21.57;6.93;;;;;;;;;;5021525;28;20063;-79